Main page
METAR-TAF:

METAR-TAF

Airports :

Shelbyville Municipal Airport

Shelbyville, Indiana, United States

latitude: 39-35-08N, longitude: 085-48-00W, elevation: 804 ft

Current weather observation

The report was made 48 minutes ago, at 05:53 UTC
Wind 3 mph from the South/Southwest
Temperature 73°F
Humidity 78%
Pressure 30.09 in. Hg
Visibility: 8 miles
Few clouds at a height of 4500 ft
Broken clouds at a height of 8500 ft
Overcast at a height of 11000 ft

METAR: KGEZ 240553Z AUTO 21003KT 8SM FEW045 BKN085 OVC110 23/19 A3009 RMK AO2 SLP183 T02280194 10278 20211 58000

Time: 02:41 (06:41 UTC)


TAF: missing

Weather observations and forecasts of more than 4000 airports (METAR and TAF reports).

The available stations are represented by yellow and red dots on the map.

Hover mouse over dot to see the name of the station.

Then click to see weather observations and forecasts.

To change the map : click on the green buttons with a black cross to zoom in, on the green button with a dash to zoom out, or on the green arrows for adjacent maps.


METAR-TAF: